createdAt,value
2023-01-11T00:01:43.959Z,13.33
2023-01-11T00:04:30.497Z,14.30
2023-01-11T00:07:13.857Z,13.97
2023-01-11T00:09:58.292Z,13.83
2023-01-11T00:12:41.364Z,13.27
2023-01-11T00:15:24.370Z,12.27
2023-01-11T00:18:07.880Z,11.67
2023-01-11T00:20:50.952Z,11.30
2023-01-11T00:23:34.052Z,16.30
2023-01-11T00:26:18.581Z,14.10
2023-01-11T00:29:01.799Z,12.87
2023-01-11T00:31:45.162Z,12.57
2023-01-11T00:34:28.352Z,12.97
2023-01-11T00:37:11.443Z,12.13
2023-01-11T00:39:54.900Z,12.07
2023-01-11T00:42:56.627Z,11.67
2023-01-11T00:45:57.366Z,12.27
2023-01-11T00:48:40.477Z,10.90
2023-01-11T00:51:23.785Z,10.97
2023-01-11T00:54:06.859Z,11.00
2023-01-11T00:56:49.854Z,11.17
2023-01-11T00:59:34.305Z,10.87
2023-01-11T01:02:17.709Z,10.53
2023-01-11T01:05:00.770Z,11.27
2023-01-11T01:07:44.336Z,12.00
2023-01-11T01:10:27.342Z,11.40
2023-01-11T01:13:29.879Z,9.80
2023-01-11T01:16:14.548Z,10.57
2023-01-11T01:18:57.687Z,11.17
2023-01-11T01:21:40.790Z,10.40
2023-01-11T01:24:24.256Z,11.43
2023-01-11T01:27:07.312Z,11.60
2023-01-11T01:29:50.399Z,11.43
2023-01-11T01:32:34.865Z,11.50
2023-01-11T01:35:17.948Z,10.67
2023-01-11T01:38:00.969Z,11.80
2023-01-11T01:40:45.865Z,12.57
2023-01-11T01:43:47.850Z,12.73
2023-01-11T01:46:32.196Z,13.20
2023-01-11T01:49:17.675Z,13.90
2023-01-11T01:52:02.251Z,12.47
2023-01-11T01:54:49.564Z,13.47
2023-01-11T01:57:36.775Z,12.50
2023-01-11T02:00:20.601Z,11.77
2023-01-11T02:03:03.932Z,11.93
2023-01-11T02:05:50.251Z,12.67
2023-01-11T02:08:39.463Z,11.87
2023-01-11T02:11:32.350Z,16.80
2023-01-11T02:14:18.896Z,19.40
2023-01-11T02:17:03.154Z,13.33
2023-01-11T02:19:56.739Z,13.07
2023-01-11T02:23:10.787Z,12.07
2023-01-11T02:26:41.127Z,12.03
2023-01-11T02:29:35.912Z,13.90
2023-01-11T02:32:30.009Z,11.80
2023-01-11T02:35:22.191Z,14.00
2023-01-11T02:38:12.034Z,12.07
2023-01-11T02:41:04.159Z,12.67
2023-01-11T02:44:08.772Z,14.43
2023-01-11T02:46:59.677Z,19.00
2023-01-11T02:49:51.566Z,14.37
2023-01-11T02:52:42.753Z,11.57
2023-01-11T02:55:30.484Z,11.47
2023-01-11T02:58:13.792Z,13.13
2023-01-11T03:00:58.575Z,12.83
2023-01-11T03:03:43.037Z,11.57
2023-01-11T03:06:29.994Z,11.03
2023-01-11T03:09:22.977Z,12.30
2023-01-11T03:12:39.019Z,12.30
2023-01-11T03:16:00.464Z,10.47
2023-01-11T03:18:52.911Z,12.83
2023-01-11T03:21:53.519Z,10.70
2023-01-11T03:24:45.931Z,10.20
2023-01-11T03:27:38.707Z,10.50
2023-01-11T03:30:29.216Z,10.43
2023-01-11T03:33:19.356Z,11.93
2023-01-11T03:36:10.301Z,10.80
2023-01-11T03:38:57.602Z,10.70
2023-01-11T03:41:44.834Z,11.67
2023-01-11T03:44:31.598Z,11.77
2023-01-11T03:47:17.912Z,10.60
2023-01-11T03:50:05.584Z,12.70
2023-01-11T03:52:52.301Z,12.40
2023-01-11T03:55:40.740Z,13.90
2023-01-11T03:58:24.558Z,20.57
2023-01-11T04:01:09.001Z,21.63
2023-01-11T04:03:52.166Z,12.93
2023-01-11T04:06:38.990Z,14.47
2023-01-11T04:09:23.547Z,14.47
2023-01-11T04:12:07.508Z,19.53
2023-01-11T04:14:50.510Z,16.87
2023-01-11T04:17:34.586Z,20.17
2023-01-11T04:20:17.937Z,18.37
2023-01-11T04:23:01.227Z,16.27
2023-01-11T04:25:47.059Z,15.40
2023-01-11T04:28:30.161Z,18.97
2023-01-11T04:31:13.539Z,15.00
2023-01-11T04:33:56.648Z,17.57
2023-01-11T04:36:39.821Z,15.83
2023-01-11T04:39:22.981Z,19.07
2023-01-11T04:42:19.669Z,16.80
2023-01-11T04:45:05.508Z,16.97
2023-01-11T04:47:56.142Z,16.33
2023-01-11T04:50:39.317Z,17.67
2023-01-11T04:53:22.484Z,17.43
2023-01-11T04:56:07.338Z,18.27
2023-01-11T04:58:51.963Z,17.07
2023-01-11T05:01:35.060Z,18.23
2023-01-11T05:04:18.382Z,17.50
2023-01-11T05:07:01.490Z,15.23
2023-01-11T05:09:44.967Z,18.63
2023-01-11T05:12:28.023Z,20.03
2023-01-11T05:15:13.451Z,20.37
2023-01-11T05:17:56.454Z,19.83
2023-01-11T05:20:39.495Z,18.77
2023-01-11T05:23:22.546Z,16.90
2023-01-11T05:26:07.705Z,18.07
2023-01-11T05:28:51.764Z,13.67
2023-01-11T05:31:37.976Z,14.83
2023-01-11T05:34:21.114Z,16.33
2023-01-11T05:37:04.207Z,11.93
2023-01-11T05:39:47.270Z,14.77
2023-01-11T05:42:30.372Z,13.93
2023-01-11T05:45:31.053Z,15.37
2023-01-11T05:48:15.594Z,15.40
2023-01-11T05:51:01.358Z,15.13
2023-01-11T05:53:44.861Z,11.37
2023-01-11T05:56:28.236Z,12.57
2023-01-11T05:59:11.363Z,10.87
2023-01-11T06:01:55.601Z,10.90
2023-01-11T06:04:40.085Z,11.63
2023-01-11T06:07:25.069Z,11.37
2023-01-11T06:10:09.324Z,14.70
2023-01-11T06:13:16.124Z,23.27
2023-01-11T06:16:01.571Z,21.83
2023-01-11T06:18:46.544Z,23.43
2023-01-11T06:21:31.497Z,15.63
2023-01-11T06:24:14.546Z,19.80
2023-01-11T06:26:58.171Z,19.10
2023-01-11T06:29:41.627Z,19.00
2023-01-11T06:32:24.773Z,19.77
2023-01-11T06:35:08.470Z,24.77
2023-01-11T06:37:53.214Z,20.40
2023-01-11T06:40:36.689Z,15.37
2023-01-11T06:43:19.697Z,20.60
2023-01-11T06:46:03.057Z,19.17
2023-01-11T06:48:46.254Z,16.47
2023-01-11T06:51:29.369Z,18.73
2023-01-11T06:54:13.827Z,19.80
2023-01-11T06:56:56.898Z,32.87
2023-01-11T06:59:40.573Z,26.33
2023-01-11T07:02:23.621Z,20.07
2023-01-11T07:05:07.645Z,22.00
2023-01-11T07:07:50.786Z,18.33
2023-01-11T07:10:35.366Z,20.53
2023-01-11T07:13:18.613Z,17.47
2023-01-11T07:16:02.205Z,19.07
2023-01-11T07:18:46.693Z,21.23
2023-01-11T07:21:29.885Z,21.60
2023-01-11T07:24:13.296Z,20.43
2023-01-11T07:26:59.736Z,15.67
2023-01-11T07:29:42.840Z,16.23
2023-01-11T07:32:27.730Z,17.23
2023-01-11T07:35:11.281Z,19.07
2023-01-11T07:37:54.432Z,21.90
2023-01-11T07:40:39.983Z,19.33
2023-01-11T07:43:23.862Z,18.63
2023-01-11T07:46:07.635Z,15.47
2023-01-11T07:48:50.777Z,21.10
2023-01-11T07:51:33.821Z,19.70
2023-01-11T07:54:17.245Z,23.20
2023-01-11T07:57:00.348Z,24.37
2023-01-11T07:59:44.839Z,29.43
2023-01-11T08:02:27.938Z,34.70
2023-01-11T08:05:11.467Z,27.93
2023-01-11T08:07:54.731Z,27.20
2023-01-11T08:10:39.188Z,23.90
2023-01-11T08:13:41.551Z,20.73
2023-01-11T08:16:27.487Z,27.93
2023-01-11T08:19:10.643Z,25.33
2023-01-11T08:21:53.963Z,29.77
2023-01-11T08:24:37.374Z,22.40
2023-01-11T08:27:20.485Z,28.30
2023-01-11T08:30:03.513Z,22.27
2023-01-11T08:32:48.461Z,29.07
2023-01-11T08:35:32.893Z,33.87
2023-01-11T08:38:15.957Z,31.40
2023-01-11T08:40:59.082Z,26.40
2023-01-11T08:43:42.671Z,30.17
2023-01-11T08:46:26.546Z,28.23
2023-01-11T08:49:12.509Z,30.70
2023-01-11T08:51:55.664Z,28.03
2023-01-11T08:54:38.807Z,24.77
2023-01-11T08:57:22.473Z,22.37
2023-01-11T09:00:05.786Z,22.13
2023-01-11T09:02:48.925Z,24.80
2023-01-11T09:05:33.460Z,15.43
2023-01-11T09:08:16.539Z,17.00
2023-01-11T09:11:00.255Z,17.33
2023-01-11T09:13:43.400Z,14.27
2023-01-11T09:16:26.551Z,21.20
2023-01-11T09:19:09.974Z,15.57
2023-01-11T09:21:57.985Z,16.33
2023-01-11T09:24:41.197Z,19.83
2023-01-11T09:27:24.674Z,15.87
2023-01-11T09:30:09.093Z,12.37
2023-01-11T09:32:53.076Z,12.03
2023-01-11T09:35:38.595Z,11.30
2023-01-11T09:38:25.391Z,8.60
2023-01-11T09:41:24.259Z,15.47
2023-01-11T09:44:16.741Z,10.77
2023-01-11T09:47:14.647Z,12.30
2023-01-11T09:50:02.804Z,10.53
2023-01-11T09:52:50.866Z,11.77
2023-01-11T09:55:39.472Z,10.70
2023-01-11T09:58:53.545Z,12.27
2023-01-11T10:01:41.282Z,9.70
2023-01-11T10:05:00.529Z,11.90
2023-01-11T10:18:22.984Z,10.27
2023-01-11T10:18:30.654Z,8.77
2023-01-11T10:20:56.340Z,10.27
2023-01-11T10:23:49.731Z,14.80
2023-01-11T10:26:40.217Z,9.57
2023-01-11T10:29:57.449Z,14.50
2023-01-11T10:33:08.908Z,10.27
2023-01-11T10:36:13.690Z,9.40
2023-01-11T10:39:15.862Z,9.37
2023-01-11T10:42:16.434Z,8.37
2023-01-11T10:45:05.227Z,8.73
2023-01-11T10:47:56.657Z,8.67
2023-01-11T10:50:43.323Z,8.60
2023-01-11T10:53:30.635Z,9.00
2023-01-11T10:56:24.246Z,9.20
2023-01-11T10:59:25.403Z,9.53
2023-01-11T11:02:26.169Z,9.70
2023-01-11T11:05:21.147Z,8.10
2023-01-11T11:08:14.851Z,8.27
2023-01-11T11:11:02.397Z,8.53
2023-01-11T11:13:54.088Z,8.30
2023-01-11T11:16:51.073Z,8.63
2023-01-11T11:19:34.836Z,7.90
2023-01-11T11:22:20.078Z,8.47
2023-01-11T11:25:06.647Z,10.23
2023-01-11T11:27:52.288Z,15.67
2023-01-11T11:30:38.301Z,8.70
2023-01-11T11:33:25.237Z,8.57
2023-01-11T11:36:09.988Z,7.83
2023-01-11T11:39:05.651Z,8.93
2023-01-11T11:41:51.066Z,8.00
2023-01-11T11:44:34.393Z,8.60
2023-01-11T11:47:18.527Z,9.80
2023-01-11T11:50:43.035Z,9.20
2023-01-11T11:53:35.554Z,9.73
2023-01-11T11:56:22.661Z,8.37
2023-01-11T11:59:10.409Z,9.60
2023-01-11T12:02:01.153Z,9.17
2023-01-11T12:04:48.187Z,9.77
2023-01-11T12:07:46.272Z,10.77
2023-01-11T12:10:40.188Z,9.97
2023-01-11T12:13:29.835Z,10.77
2023-01-11T12:16:22.996Z,9.20
2023-01-11T12:19:26.415Z,11.40
2023-01-11T12:22:16.983Z,9.60
2023-01-11T12:25:24.317Z,10.07
2023-01-11T12:28:15.754Z,13.00
2023-01-11T12:31:08.848Z,9.87
2023-01-11T12:34:00.203Z,12.87
2023-01-11T12:36:51.067Z,9.63
2023-01-11T12:39:45.702Z,10.10
2023-01-11T12:43:03.767Z,11.47
2023-01-11T12:45:56.836Z,12.33
2023-01-11T12:48:58.917Z,14.67
2023-01-11T12:51:59.698Z,12.00
2023-01-11T12:55:01.880Z,10.57
2023-01-11T12:58:01.339Z,10.77
2023-01-11T13:01:12.960Z,11.33
2023-01-11T13:04:31.449Z,11.63
2023-01-11T13:07:31.432Z,10.33
2023-01-11T13:10:25.187Z,11.37
2023-01-11T13:13:16.161Z,12.23
2023-01-11T13:16:03.606Z,15.27
2023-01-11T13:18:57.350Z,11.50
2023-01-11T13:21:44.759Z,12.07
2023-01-11T13:24:31.173Z,11.00
2023-01-11T13:27:19.064Z,10.53
2023-01-11T13:30:03.323Z,10.67
2023-01-11T13:32:54.231Z,11.70
2023-01-11T13:35:42.364Z,11.67
2023-01-11T13:38:35.866Z,11.20
2023-01-11T13:41:23.545Z,11.47
2023-01-11T13:44:14.587Z,13.40
2023-01-11T13:47:04.239Z,17.83
2023-01-11T13:50:00.762Z,10.77
2023-01-11T13:52:55.401Z,12.30
2023-01-11T13:55:46.668Z,11.93
2023-01-11T13:58:37.257Z,16.97
2023-01-11T14:01:26.926Z,16.83
2023-01-11T14:04:17.248Z,20.53
2023-01-11T14:07:19.243Z,19.30
2023-01-11T14:10:20.948Z,15.43
2023-01-11T14:13:47.959Z,16.40
2023-01-11T14:16:40.631Z,12.13
2023-01-11T14:19:30.451Z,13.80
2023-01-11T14:22:25.371Z,13.87
2023-01-11T14:25:16.228Z,12.73
2023-01-11T14:28:16.011Z,12.63
2023-01-11T14:31:16.083Z,13.80
2023-01-11T14:34:21.586Z,18.60
2023-01-11T14:37:38.510Z,11.30
2023-01-11T14:40:36.629Z,14.67
2023-01-11T14:43:47.520Z,20.10
2023-01-11T14:46:52.336Z,16.03
2023-01-11T14:49:51.779Z,14.97
2023-01-11T14:52:40.934Z,15.50
2023-01-11T14:55:27.251Z,17.40
2023-01-11T14:58:21.465Z,19.60
2023-01-11T15:01:11.643Z,18.60
2023-01-11T15:03:57.847Z,17.47
2023-01-11T15:06:54.546Z,16.47
2023-01-11T15:09:47.898Z,17.77
2023-01-11T15:12:38.170Z,20.47
2023-01-11T15:15:44.566Z,17.83
2023-01-11T15:18:28.625Z,14.10
2023-01-11T15:21:17.112Z,13.60
2023-01-11T15:24:00.322Z,15.87
2023-01-11T15:26:51.677Z,14.40
2023-01-11T15:29:39.580Z,17.00
2023-01-11T15:32:27.509Z,19.93
2023-01-11T15:35:33.914Z,17.20
2023-01-11T15:38:20.528Z,15.57
2023-01-11T15:41:19.264Z,15.10
2023-01-11T15:44:23.223Z,16.13
2023-01-11T15:47:36.475Z,15.17
2023-01-11T15:50:55.671Z,15.27
2023-01-11T15:54:04.539Z,14.47
2023-01-11T15:57:12.166Z,12.90
2023-01-11T16:00:22.647Z,16.23
2023-01-11T16:03:46.919Z,13.17
2023-01-11T16:06:44.868Z,15.40
2023-01-11T16:09:46.306Z,15.37
2023-01-11T16:12:46.255Z,13.33
2023-01-11T16:15:42.463Z,15.83
2023-01-11T16:18:29.239Z,17.63
2023-01-11T16:21:18.778Z,20.17
2023-01-11T16:24:03.539Z,12.37
2023-01-11T16:26:52.097Z,13.20
2023-01-11T16:29:37.120Z,15.67
2023-01-11T16:32:27.107Z,11.20
2023-01-11T16:35:19.365Z,13.50
2023-01-11T16:38:04.057Z,11.03
2023-01-11T16:40:50.228Z,11.53
2023-01-11T16:43:36.551Z,12.07
2023-01-11T16:47:16.956Z,11.27
2023-01-11T16:50:21.796Z,19.10
2023-01-11T16:53:06.382Z,15.13
2023-01-11T16:55:56.286Z,17.07
2023-01-11T16:58:40.753Z,16.07
2023-01-11T17:01:23.948Z,13.87
2023-01-11T17:04:10.110Z,14.30
2023-01-11T17:06:57.642Z,17.47
2023-01-11T17:09:42.990Z,14.40
2023-01-11T17:12:29.032Z,11.60
2023-01-11T17:15:23.226Z,16.17
2023-01-11T17:18:06.507Z,13.90
2023-01-11T17:20:54.487Z,13.90
2023-01-11T17:23:40.729Z,14.40
2023-01-11T17:26:26.692Z,16.23
2023-01-11T17:29:11.181Z,14.73
2023-01-11T17:31:56.155Z,16.67
2023-01-11T17:34:40.549Z,15.43
2023-01-11T17:37:24.620Z,17.07
2023-01-11T17:40:22.591Z,20.23
2023-01-11T17:43:28.788Z,15.57
2023-01-11T17:46:19.106Z,17.70
2023-01-11T17:49:02.280Z,17.50
2023-01-11T17:51:46.468Z,21.03
2023-01-11T17:54:30.656Z,18.70
2023-01-11T17:57:15.421Z,18.33
2023-01-11T18:00:19.793Z,15.80
2023-01-11T18:03:10.516Z,16.23
2023-01-11T18:05:53.966Z,15.60
2023-01-11T18:08:37.308Z,17.27
2023-01-11T18:11:29.473Z,17.83
2023-01-11T18:14:22.010Z,16.53
2023-01-11T18:17:08.115Z,20.17
2023-01-11T18:19:51.238Z,15.90
2023-01-11T18:22:37.417Z,15.20
2023-01-11T18:25:22.712Z,16.90
2023-01-11T18:28:30.003Z,20.13
2023-01-11T18:31:16.817Z,17.50
2023-01-11T18:34:00.582Z,17.27
2023-01-11T18:36:43.664Z,23.70
2023-01-11T18:39:26.852Z,17.67
2023-01-11T18:42:16.786Z,16.57
2023-01-11T18:45:00.082Z,16.80
2023-01-11T18:47:44.780Z,20.08
2023-01-11T18:50:28.205Z,24.60
2023-01-11T18:53:12.553Z,18.10
2023-01-11T18:55:55.996Z,18.50
2023-01-11T18:58:39.124Z,18.37
2023-01-11T19:01:22.513Z,18.47
2023-01-11T19:04:07.999Z,22.00
2023-01-11T19:06:52.466Z,24.13
2023-01-11T19:09:35.586Z,21.93
2023-01-11T19:12:19.360Z,23.97
2023-01-11T19:15:03.913Z,27.37
2023-01-11T19:17:48.183Z,24.07
2023-01-11T19:20:33.941Z,29.40
2023-01-11T19:23:17.270Z,29.37
2023-01-11T19:26:02.321Z,31.00
2023-01-11T19:28:46.756Z,29.13
2023-01-11T19:31:30.113Z,29.23
2023-01-11T19:34:13.489Z,30.53
2023-01-11T19:37:05.374Z,28.77
2023-01-11T19:39:50.011Z,31.97
2023-01-11T19:42:33.220Z,31.33
2023-01-11T19:45:17.491Z,27.10
2023-01-11T19:48:00.806Z,25.03
2023-01-11T19:50:44.931Z,25.43
2023-01-11T19:53:31.076Z,25.90
2023-01-11T19:56:14.379Z,24.53
2023-01-11T19:58:57.479Z,27.33
2023-01-11T20:01:41.695Z,26.70
2023-01-11T20:04:32.508Z,26.87
2023-01-11T20:07:18.489Z,29.40
2023-01-11T20:10:03.216Z,30.43
2023-01-11T20:12:46.367Z,27.27
2023-01-11T20:15:30.268Z,27.07
2023-01-11T20:18:13.746Z,26.70
2023-01-11T20:21:00.707Z,26.47
2023-01-11T20:23:51.928Z,20.87
2023-01-11T20:26:37.364Z,20.13
2023-01-11T20:29:20.723Z,18.33
2023-01-11T20:32:27.814Z,18.13
2023-01-11T20:35:08.146Z,18.83
2023-01-11T20:37:51.275Z,22.03
2023-01-11T20:40:34.473Z,17.23
2023-01-11T20:43:19.788Z,18.60
2023-01-11T20:46:03.422Z,25.03
2023-01-11T20:48:52.178Z,16.27
2023-01-11T20:51:35.493Z,18.40
2023-01-11T20:54:19.215Z,19.57
2023-01-11T20:57:05.688Z,17.43
2023-01-11T20:59:52.714Z,18.47
2023-01-11T21:02:36.275Z,18.40
2023-01-11T21:05:19.347Z,17.57
2023-01-11T21:08:02.552Z,18.33
2023-01-11T21:10:45.650Z,20.70
2023-01-11T21:13:28.821Z,18.13
2023-01-11T21:16:17.767Z,21.67
2023-01-11T21:19:05.447Z,17.87
2023-01-11T21:21:49.730Z,19.07
2023-01-11T21:24:33.027Z,19.03
2023-01-11T21:27:16.236Z,20.40
2023-01-11T21:29:59.458Z,17.57
2023-01-11T21:32:44.046Z,19.70
2023-01-11T21:35:27.261Z,18.33
2023-01-11T21:38:10.472Z,19.30
2023-01-11T21:40:53.621Z,19.43
2023-01-11T21:43:37.617Z,17.60
2023-01-11T21:46:20.726Z,17.17
2023-01-11T21:49:05.561Z,19.57
2023-01-11T21:51:48.686Z,19.87
2023-01-11T21:54:31.831Z,18.07
2023-01-11T21:57:14.956Z,21.13
2023-01-11T21:59:57.980Z,19.90
2023-01-11T22:02:41.101Z,18.00
2023-01-11T22:05:26.194Z,22.50
2023-01-11T22:08:09.290Z,24.40
2023-01-11T22:10:58.531Z,19.50
2023-01-11T22:13:42.289Z,24.93
2023-01-11T22:20:20.887Z,19.80
2023-01-11T22:23:05.667Z,21.77
2023-01-11T22:25:49.010Z,20.47
2023-01-11T22:28:32.180Z,21.70
2023-01-11T22:31:15.870Z,19.77
2023-01-11T22:33:59.426Z,18.47
2023-01-11T22:36:43.228Z,19.33
2023-01-11T22:39:29.561Z,20.97
2023-01-11T22:42:12.705Z,20.40
2023-01-11T22:44:55.854Z,21.53
2023-01-11T22:47:39.046Z,20.60
2023-01-11T22:50:22.555Z,22.90
2023-01-11T22:53:05.717Z,20.73
2023-01-11T22:55:50.448Z,17.83
2023-01-11T22:58:35.116Z,20.60
2023-01-11T23:01:20.242Z,19.33
2023-01-11T23:04:03.948Z,22.00
2023-01-11T23:06:47.451Z,20.37
2023-01-11T23:09:30.776Z,18.87
2023-01-11T23:12:33.016Z,18.07
2023-01-11T23:15:16.254Z,20.63
2023-01-11T23:17:59.978Z,17.43
2023-01-11T23:20:43.047Z,21.00
2023-01-11T23:23:28.481Z,21.10
2023-01-11T23:26:12.913Z,21.57
2023-01-11T23:28:57.499Z,21.83
2023-01-11T23:31:40.779Z,22.30
2023-01-11T23:34:24.119Z,20.93
2023-01-11T23:37:08.421Z,21.60
2023-01-11T23:39:51.507Z,21.33
2023-01-11T23:42:35.575Z,16.53
2023-01-11T23:45:20.080Z,21.13
2023-01-11T23:48:02.069Z,19.10
2023-01-11T23:50:45.196Z,19.37
2023-01-11T23:53:28.368Z,16.40
2023-01-11T23:56:11.572Z,19.10
2023-01-11T23:58:55.096Z,19.53
